createdAt,value
2023-03-26T00:00:41.782Z,23.18
2023-03-26T00:01:45.070Z,23.18
2023-03-26T00:02:48.369Z,23.18
2023-03-26T00:03:51.671Z,23.25
2023-03-26T00:04:54.945Z,23.25
2023-03-26T00:05:58.245Z,23.25
2023-03-26T00:07:01.551Z,23.25
2023-03-26T00:08:03.849Z,23.25
2023-03-26T00:09:07.109Z,23.18
2023-03-26T00:10:10.405Z,23.25
2023-03-26T00:11:13.715Z,23.18
2023-03-26T00:12:16.990Z,23.18
2023-03-26T00:13:20.308Z,23.25
2023-03-26T00:14:23.587Z,23.25
2023-03-26T00:15:25.895Z,23.31
2023-03-26T00:16:28.212Z,23.25
2023-03-26T00:17:30.525Z,23.25
2023-03-26T00:18:32.817Z,23.25
2023-03-26T00:19:36.137Z,23.25
2023-03-26T00:20:38.446Z,23.25
2023-03-26T00:21:40.751Z,23.25
2023-03-26T00:22:44.033Z,23.31
2023-03-26T00:23:47.351Z,23.25
2023-03-26T00:24:50.603Z,23.25
2023-03-26T00:25:53.920Z,23.25
2023-03-26T00:26:57.254Z,23.31
2023-03-26T00:28:00.492Z,23.25
2023-03-26T00:29:03.850Z,23.25
2023-03-26T00:30:07.098Z,23.31
2023-03-26T00:31:10.371Z,23.25
2023-03-26T00:32:13.686Z,23.18
2023-03-26T00:33:16.950Z,23.25
2023-03-26T00:34:20.247Z,23.18
2023-03-26T00:35:22.569Z,23.25
2023-03-26T00:36:25.846Z,23.25
2023-03-26T00:37:29.309Z,23.25
2023-03-26T00:38:32.586Z,23.25
2023-03-26T00:39:35.716Z,23.18
2023-03-26T00:40:39.006Z,23.25
2023-03-26T00:41:42.298Z,23.25
2023-03-26T00:42:44.627Z,23.18
2023-03-26T00:43:46.920Z,23.25
2023-03-26T00:44:50.217Z,23.18
2023-03-26T00:45:52.519Z,23.25
2023-03-26T00:46:54.926Z,23.18
2023-03-26T00:47:58.132Z,23.18
2023-03-26T00:49:01.427Z,23.25
2023-03-26T00:50:04.706Z,23.25
2023-03-26T00:51:08.025Z,23.18
2023-03-26T00:52:11.331Z,23.18
2023-03-26T00:53:14.599Z,23.25
2023-03-26T00:54:17.881Z,23.18
2023-03-26T00:55:21.166Z,23.25
2023-03-26T00:56:24.474Z,23.25
2023-03-26T00:57:27.758Z,23.25
2023-03-26T00:58:31.130Z,23.25
2023-03-26T00:59:34.475Z,23.25
2023-03-26T01:00:36.667Z,23.18
2023-03-26T01:01:40.017Z,23.18
2023-03-26T01:02:43.238Z,23.18
2023-03-26T01:03:46.535Z,23.25
2023-03-26T01:04:49.804Z,23.18
2023-03-26T01:05:53.137Z,23.18
2023-03-26T01:06:56.547Z,23.25
2023-03-26T01:07:58.749Z,23.25
2023-03-26T01:09:01.059Z,23.25
2023-03-26T01:10:03.465Z,23.25
2023-03-26T01:11:05.718Z,23.25
2023-03-26T01:12:08.932Z,23.25
2023-03-26T01:13:12.224Z,23.25
2023-03-26T01:14:15.521Z,23.18
2023-03-26T01:15:18.827Z,23.25
2023-03-26T01:16:22.167Z,23.31
2023-03-26T01:17:25.469Z,23.18
2023-03-26T01:18:28.732Z,23.25
2023-03-26T01:19:31.954Z,23.25
2023-03-26T01:20:35.699Z,23.25
2023-03-26T01:21:39.031Z,23.31
2023-03-26T01:22:42.289Z,23.18
2023-03-26T01:23:45.586Z,23.18
2023-03-26T01:24:47.941Z,23.25
2023-03-26T01:25:51.177Z,23.25
2023-03-26T01:26:54.481Z,23.25
2023-03-26T01:27:57.780Z,23.18
2023-03-26T01:29:01.101Z,23.18
2023-03-26T01:30:04.417Z,23.18
2023-03-26T01:31:07.641Z,23.18
2023-03-26T01:32:10.013Z,23.25
2023-03-26T01:33:12.320Z,23.18
2023-03-26T01:34:14.582Z,23.25
2023-03-26T01:35:16.943Z,23.25
2023-03-26T01:36:20.184Z,23.25
2023-03-26T01:37:23.486Z,23.25
2023-03-26T01:38:26.833Z,23.18
2023-03-26T01:39:30.113Z,23.25
2023-03-26T01:40:33.440Z,23.18
2023-03-26T01:41:36.630Z,23.25
2023-03-26T01:42:39.936Z,23.25
2023-03-26T01:43:43.230Z,23.25
2023-03-26T01:44:46.538Z,23.25
2023-03-26T01:45:49.870Z,23.25
2023-03-26T01:46:53.158Z,23.25
2023-03-26T01:47:56.416Z,23.25
2023-03-26T01:48:58.786Z,23.18
2023-03-26T01:50:02.025Z,23.18
2023-03-26T01:51:05.402Z,23.18
2023-03-26T01:52:08.580Z,23.18
2023-03-26T01:53:11.965Z,23.18
2023-03-26T01:54:15.153Z,23.18
2023-03-26T01:55:18.455Z,23.25
2023-03-26T01:56:20.755Z,23.18
2023-03-26T01:57:23.078Z,23.12
2023-03-26T01:58:26.364Z,23.18
2023-03-26T01:59:28.729Z,23.18
2023-03-26T02:00:30.994Z,23.18
2023-03-26T02:01:34.270Z,23.18
2023-03-26T02:02:37.555Z,23.18
2023-03-26T02:03:40.860Z,23.18
2023-03-26T02:04:44.155Z,23.18
2023-03-26T02:05:47.459Z,23.25
2023-03-26T02:06:50.743Z,23.18
2023-03-26T02:07:54.031Z,23.18
2023-03-26T02:08:57.321Z,23.18
2023-03-26T02:10:00.610Z,23.18
2023-03-26T02:11:03.931Z,23.18
2023-03-26T02:12:07.252Z,23.18
2023-03-26T02:13:10.495Z,23.18
2023-03-26T02:14:12.834Z,23.18
2023-03-26T02:15:16.135Z,23.12
2023-03-26T02:16:19.380Z,23.18
2023-03-26T02:17:22.692Z,23.18
2023-03-26T02:18:25.975Z,23.12
2023-03-26T02:19:29.282Z,23.18
2023-03-26T02:20:32.658Z,23.18
2023-03-26T02:22:38.145Z,23.18
2023-03-26T02:23:42.114Z,23.18
2023-03-26T02:24:44.437Z,23.18
2023-03-26T02:25:46.738Z,23.18
2023-03-26T02:26:49.028Z,23.18
2023-03-26T02:27:52.452Z,23.18
2023-03-26T02:28:55.754Z,23.18
2023-03-26T02:29:59.037Z,23.18
2023-03-26T02:31:02.330Z,23.18
2023-03-26T02:32:05.627Z,23.12
2023-03-26T02:33:08.915Z,23.12
2023-03-26T02:34:12.226Z,23.18
2023-03-26T02:35:15.539Z,23.12
2023-03-26T02:36:18.822Z,23.12
2023-03-26T02:37:22.080Z,23.12
2023-03-26T02:38:25.388Z,23.12
2023-03-26T02:39:28.651Z,23.12
2023-03-26T02:40:31.950Z,23.06
2023-03-26T02:41:34.271Z,23.12
2023-03-26T02:42:37.556Z,23.12
2023-03-26T02:43:40.848Z,23.12
2023-03-26T02:44:44.136Z,23.12
2023-03-26T02:45:47.428Z,23.12
2023-03-26T02:46:50.716Z,23.18
2023-03-26T02:47:54.028Z,23.18
2023-03-26T02:48:56.321Z,23.18
2023-03-26T02:49:58.635Z,23.12
2023-03-26T02:51:00.988Z,23.18
2023-03-26T02:52:03.239Z,23.12
2023-03-26T02:53:06.561Z,23.18
2023-03-26T02:54:09.850Z,23.18
2023-03-26T02:55:13.132Z,23.12
2023-03-26T02:56:16.479Z,23.12
2023-03-26T02:57:19.702Z,23.12
2023-03-26T02:58:23.013Z,23.12
2023-03-26T02:59:26.333Z,23.12
2023-03-26T03:00:29.599Z,23.18
2023-03-26T03:01:32.880Z,23.12
2023-03-26T03:02:36.345Z,23.06
2023-03-26T03:03:39.630Z,23.12
2023-03-26T03:04:42.925Z,23.12
2023-03-26T03:05:45.256Z,23.18
2023-03-26T03:06:48.528Z,23.12
2023-03-26T03:07:51.821Z,23.12
2023-03-26T03:08:55.121Z,23.06
2023-03-26T03:09:58.460Z,23.06
2023-03-26T03:11:01.712Z,23.12
2023-03-26T03:12:04.995Z,23.12
2023-03-26T03:13:07.295Z,23.12
2023-03-26T03:14:09.612Z,23.12
2023-03-26T03:15:11.931Z,23.12
2023-03-26T03:16:14.274Z,23.12
2023-03-26T03:17:17.514Z,23.06
2023-03-26T03:18:20.807Z,23.12
2023-03-26T03:19:24.169Z,23.06
2023-03-26T03:20:27.395Z,23.06
2023-03-26T03:21:30.681Z,23.12
2023-03-26T03:22:33.994Z,23.06
2023-03-26T03:23:37.273Z,23.12
2023-03-26T03:24:40.575Z,23.12
2023-03-26T03:25:43.859Z,23.12
2023-03-26T03:26:47.157Z,23.12
2023-03-26T03:27:50.442Z,23.12
2023-03-26T03:28:53.725Z,23.12
2023-03-26T03:29:56.050Z,23.12
2023-03-26T03:30:59.326Z,23.06
2023-03-26T03:32:02.635Z,23.12
2023-03-26T03:33:05.918Z,23.06
2023-03-26T03:34:09.211Z,23.06
2023-03-26T03:36:15.794Z,23.12
2023-03-26T03:37:19.097Z,23.12
2023-03-26T03:38:21.403Z,23.06
2023-03-26T03:39:23.710Z,23.06
2023-03-26T03:40:27.006Z,23.06
2023-03-26T03:41:29.306Z,23.06
2023-03-26T03:42:31.634Z,23.06
2023-03-26T03:43:34.907Z,23.06
2023-03-26T03:44:38.261Z,23.12
2023-03-26T03:45:41.488Z,23.06
2023-03-26T03:46:44.778Z,23.06
2023-03-26T03:47:48.070Z,23.06
2023-03-26T03:48:51.360Z,23.12
2023-03-26T03:49:54.658Z,23.06
2023-03-26T03:50:57.970Z,23.06
2023-03-26T03:52:01.232Z,23.12
2023-03-26T03:53:04.546Z,23.18
2023-03-26T03:54:07.829Z,23.06
2023-03-26T03:55:11.116Z,23.06
2023-03-26T03:56:13.428Z,23.06
2023-03-26T03:57:16.721Z,23.06
2023-03-26T03:58:19.993Z,23.06
2023-03-26T03:59:23.323Z,23.12
2023-03-26T04:00:26.609Z,23.06
2023-03-26T04:01:29.897Z,23.06
2023-03-26T04:02:33.184Z,23.06
2023-03-26T04:03:35.490Z,23.06
2023-03-26T04:04:37.794Z,23.06
2023-03-26T04:05:40.119Z,23.06
2023-03-26T04:06:42.410Z,23.06
2023-03-26T04:07:45.719Z,23.06
2023-03-26T04:08:49.020Z,23.06
2023-03-26T04:09:52.313Z,23.06
2023-03-26T04:10:55.596Z,23.06
2023-03-26T04:11:58.872Z,23
2023-03-26T04:13:02.161Z,23.06
2023-03-26T04:14:05.474Z,23.06
2023-03-26T04:15:08.764Z,23.06
2023-03-26T04:16:12.050Z,23.06
2023-03-26T04:17:15.334Z,23.06
2023-03-26T04:18:18.638Z,23.06
2023-03-26T04:19:21.930Z,23
2023-03-26T04:20:24.238Z,23.06
2023-03-26T04:21:27.533Z,23
2023-03-26T04:22:30.808Z,23.06
2023-03-26T04:23:34.123Z,23.06
2023-03-26T04:24:37.390Z,23.06
2023-03-26T04:25:40.696Z,23
2023-03-26T04:26:43.991Z,23.06
2023-03-26T04:27:46.309Z,23.06
2023-03-26T04:28:48.602Z,23
2023-03-26T04:29:50.923Z,23.06
2023-03-26T04:30:53.250Z,23
2023-03-26T04:32:59.841Z,23
2023-03-26T04:34:03.090Z,23.06
2023-03-26T04:35:06.389Z,23
2023-03-26T04:36:09.741Z,23
2023-03-26T04:37:12.975Z,23
2023-03-26T04:38:16.262Z,23
2023-03-26T04:39:19.553Z,22.93
2023-03-26T04:40:22.852Z,23
2023-03-26T04:41:26.160Z,23
2023-03-26T04:42:29.439Z,23
2023-03-26T04:43:32.731Z,23
2023-03-26T04:44:35.038Z,23.06
2023-03-26T04:45:38.317Z,23
2023-03-26T04:46:41.607Z,23
2023-03-26T04:47:44.916Z,23.06
2023-03-26T04:48:48.215Z,23
2023-03-26T04:49:51.499Z,23
2023-03-26T04:50:54.781Z,23
2023-03-26T04:51:58.131Z,23
2023-03-26T04:53:00.400Z,22.93
2023-03-26T04:54:02.712Z,23
2023-03-26T04:55:05.020Z,23
2023-03-26T04:56:07.315Z,23.06
2023-03-26T04:57:10.599Z,23
2023-03-26T04:58:13.913Z,23
2023-03-26T04:59:17.198Z,23.06
2023-03-26T05:00:20.490Z,23
2023-03-26T05:01:23.775Z,23
2023-03-26T05:02:27.089Z,23
2023-03-26T05:03:30.366Z,23
2023-03-26T05:04:33.651Z,23
2023-03-26T05:05:37.128Z,23.06
2023-03-26T05:06:40.484Z,23
2023-03-26T05:07:43.779Z,23
2023-03-26T05:08:46.995Z,23
2023-03-26T05:09:49.384Z,22.93
2023-03-26T05:10:52.587Z,23
2023-03-26T05:11:55.875Z,22.93
2023-03-26T05:12:59.188Z,22.93
2023-03-26T05:14:02.464Z,22.93
2023-03-26T05:15:05.791Z,22.93
2023-03-26T05:16:09.061Z,23
2023-03-26T05:17:11.368Z,22.93
2023-03-26T05:18:13.663Z,22.93
2023-03-26T05:19:17.065Z,23
2023-03-26T05:20:19.283Z,23
2023-03-26T05:21:21.573Z,22.93
2023-03-26T05:22:24.884Z,22.93
2023-03-26T05:23:28.183Z,23
2023-03-26T05:24:31.473Z,23
2023-03-26T05:25:34.751Z,23
2023-03-26T05:26:38.054Z,22.93
2023-03-26T05:27:41.328Z,22.93
2023-03-26T05:28:43.657Z,22.93
2023-03-26T05:29:46.947Z,23
2023-03-26T05:30:50.223Z,23
2023-03-26T05:31:53.556Z,23
2023-03-26T05:32:56.810Z,23
2023-03-26T05:34:00.131Z,23
2023-03-26T05:35:03.402Z,23
2023-03-26T05:36:06.695Z,22.93
2023-03-26T05:37:09.982Z,22.93
2023-03-26T05:38:13.267Z,23
2023-03-26T05:39:16.630Z,23
2023-03-26T05:40:19.854Z,23
2023-03-26T05:41:23.149Z,23
2023-03-26T05:42:25.470Z,23
2023-03-26T05:43:27.779Z,23
2023-03-26T05:44:30.090Z,23
2023-03-26T05:45:32.390Z,23
2023-03-26T05:46:35.753Z,22.93
2023-03-26T05:47:38.984Z,23
2023-03-26T05:48:42.284Z,22.93
2023-03-26T05:49:45.564Z,22.93
2023-03-26T05:50:48.848Z,23
2023-03-26T05:51:52.158Z,23
2023-03-26T05:52:55.501Z,22.93
2023-03-26T05:53:58.739Z,22.93
2023-03-26T05:55:02.024Z,22.93
2023-03-26T05:56:05.311Z,23
2023-03-26T05:57:08.591Z,22.93
2023-03-26T05:58:11.894Z,22.93
2023-03-26T05:59:14.211Z,23
2023-03-26T06:00:17.512Z,23
2023-03-26T06:01:20.798Z,23
2023-03-26T06:02:24.096Z,22.93
2023-03-26T06:03:27.363Z,23
2023-03-26T06:04:30.671Z,22.93
2023-03-26T06:05:33.952Z,22.93
2023-03-26T06:06:36.257Z,22.93
2023-03-26T06:07:38.583Z,22.93
2023-03-26T06:08:40.889Z,23
2023-03-26T06:09:43.188Z,22.93
2023-03-26T06:10:46.475Z,23
2023-03-26T06:11:49.785Z,23.06
2023-03-26T06:12:53.061Z,22.93
2023-03-26T06:13:56.402Z,22.93
2023-03-26T06:14:59.750Z,22.93
2023-03-26T06:16:02.948Z,22.93
2023-03-26T06:17:06.237Z,23
2023-03-26T06:18:09.567Z,22.93
2023-03-26T06:19:12.822Z,22.93
2023-03-26T06:20:16.110Z,22.93
2023-03-26T06:21:19.400Z,22.93
2023-03-26T06:22:22.694Z,22.93
2023-03-26T06:23:25.027Z,22.93
2023-03-26T06:24:28.285Z,22.93
2023-03-26T06:25:31.613Z,22.93
2023-03-26T06:26:34.874Z,22.93
2023-03-26T06:27:38.177Z,22.93
2023-03-26T06:28:41.468Z,22.93
2023-03-26T06:29:44.759Z,22.93
2023-03-26T06:30:47.063Z,23
2023-03-26T06:31:49.369Z,22.93
2023-03-26T06:32:51.690Z,22.93
2023-03-26T06:33:54.049Z,22.93
2023-03-26T06:34:57.301Z,22.93
2023-03-26T06:36:00.624Z,23
2023-03-26T06:37:03.882Z,23
2023-03-26T06:38:07.186Z,23
2023-03-26T06:39:10.492Z,23
2023-03-26T06:40:13.758Z,22.93
2023-03-26T06:41:17.076Z,22.93
2023-03-26T06:42:20.351Z,23
2023-03-26T06:43:23.618Z,22.93
2023-03-26T06:44:26.919Z,23
2023-03-26T06:45:30.216Z,22.93
2023-03-26T06:46:33.502Z,23
2023-03-26T06:47:35.814Z,22.93
2023-03-26T06:48:39.130Z,23
2023-03-26T06:49:42.386Z,23
2023-03-26T06:50:45.673Z,22.93
2023-03-26T06:51:48.981Z,22.93
2023-03-26T06:52:52.274Z,22.93
2023-03-26T06:53:55.556Z,22.93
2023-03-26T06:54:57.887Z,22.93
2023-03-26T06:56:00.196Z,22.93
2023-03-26T06:57:02.563Z,22.93
2023-03-26T06:59:08.089Z,22.93
2023-03-26T07:00:11.385Z,23
2023-03-26T07:01:14.764Z,22.93
2023-03-26T07:02:17.981Z,22.87
2023-03-26T07:03:21.338Z,22.93
2023-03-26T07:04:24.570Z,23
2023-03-26T07:05:27.837Z,22.93
2023-03-26T07:06:31.237Z,22.93
2023-03-26T07:07:34.418Z,22.93
2023-03-26T07:08:37.960Z,22.93
2023-03-26T07:09:41.190Z,22.93
2023-03-26T07:10:44.517Z,22.93
2023-03-26T07:11:46.803Z,22.93
2023-03-26T07:12:50.103Z,22.87
2023-03-26T07:13:53.371Z,22.93
2023-03-26T07:14:56.725Z,22.87
2023-03-26T07:15:59.950Z,22.93
2023-03-26T07:17:03.276Z,22.87
2023-03-26T07:18:06.550Z,22.93
2023-03-26T07:19:09.832Z,22.93
2023-03-26T07:20:12.138Z,22.93
2023-03-26T07:21:14.505Z,22.87
2023-03-26T07:22:17.753Z,22.93
2023-03-26T07:23:20.077Z,22.87
2023-03-26T07:24:22.369Z,22.93
2023-03-26T07:25:25.645Z,22.87
2023-03-26T07:26:28.937Z,22.87
2023-03-26T07:27:32.221Z,22.93
2023-03-26T07:28:35.652Z,22.87
2023-03-26T07:29:38.824Z,22.93
2023-03-26T07:30:42.154Z,22.93
2023-03-26T07:31:45.401Z,22.93
2023-03-26T07:32:48.696Z,22.93
2023-03-26T07:33:52.004Z,22.93
2023-03-26T07:34:55.285Z,22.93
2023-03-26T07:35:58.585Z,22.93
2023-03-26T07:37:01.873Z,22.87
2023-03-26T07:38:04.181Z,22.87
2023-03-26T07:39:07.464Z,22.87
2023-03-26T07:40:10.803Z,22.93
2023-03-26T07:41:14.045Z,22.93
2023-03-26T07:42:17.343Z,22.87
2023-03-26T07:43:20.631Z,22.93
2023-03-26T07:44:23.919Z,22.93
2023-03-26T07:45:26.239Z,22.93
2023-03-26T07:46:29.736Z,22.93
2023-03-26T07:47:32.052Z,22.93
2023-03-26T07:48:34.270Z,22.87
2023-03-26T07:49:38.255Z,22.93
2023-03-26T07:50:41.552Z,22.87
2023-03-26T07:51:44.841Z,22.87
2023-03-26T07:52:48.141Z,22.87
2023-03-26T07:53:51.416Z,22.87
2023-03-26T07:54:54.721Z,22.87
2023-03-26T07:55:58.190Z,22.87
2023-03-26T07:57:01.297Z,22.87
2023-03-26T07:58:04.591Z,22.87
2023-03-26T07:59:07.994Z,22.93
2023-03-26T08:00:11.157Z,22.93
2023-03-26T08:01:14.464Z,22.87
2023-03-26T08:02:16.761Z,22.87
2023-03-26T08:03:20.166Z,22.87
2023-03-26T08:04:23.348Z,22.87
2023-03-26T08:05:26.651Z,22.87
2023-03-26T08:06:29.940Z,22.87
2023-03-26T08:07:33.246Z,22.87
2023-03-26T08:08:36.521Z,22.87
2023-03-26T08:09:38.839Z,22.87
2023-03-26T08:10:41.251Z,22.87
2023-03-26T08:11:44.563Z,22.93
2023-03-26T08:12:47.834Z,22.81
2023-03-26T08:13:51.155Z,22.81
2023-03-26T08:14:54.454Z,22.93
2023-03-26T08:15:57.856Z,22.87
2023-03-26T08:17:01.020Z,22.87
2023-03-26T08:18:04.342Z,22.87
2023-03-26T08:19:07.674Z,22.87
2023-03-26T08:20:10.893Z,22.87
2023-03-26T08:21:14.184Z,22.87
2023-03-26T08:22:17.476Z,22.87
2023-03-26T08:23:20.809Z,22.87
2023-03-26T08:24:23.078Z,22.87
2023-03-26T08:25:26.368Z,22.87
2023-03-26T08:26:29.659Z,22.87
2023-03-26T08:27:32.958Z,22.87
2023-03-26T08:28:36.240Z,22.87
2023-03-26T08:29:39.580Z,22.87
2023-03-26T08:30:42.814Z,22.87
2023-03-26T08:31:45.131Z,22.87
2023-03-26T08:32:47.462Z,22.87
2023-03-26T08:33:49.753Z,22.93
2023-03-26T08:34:52.109Z,22.81
2023-03-26T08:35:55.437Z,22.81
2023-03-26T08:36:58.679Z,22.87
2023-03-26T08:38:02.053Z,22.81
2023-03-26T08:39:05.280Z,22.87
2023-03-26T08:40:08.528Z,22.81
2023-03-26T08:41:11.845Z,22.87
2023-03-26T08:42:15.160Z,22.87
2023-03-26T08:43:18.422Z,22.81
2023-03-26T08:44:21.679Z,22.87
2023-03-26T08:45:24.976Z,22.87
2023-03-26T08:46:28.267Z,22.81
2023-03-26T08:47:31.574Z,22.87
2023-03-26T08:48:33.886Z,22.87
2023-03-26T08:49:37.163Z,22.81
2023-03-26T08:50:40.473Z,22.87
2023-03-26T08:51:43.779Z,22.87
2023-03-26T08:52:47.090Z,22.87
2023-03-26T08:53:50.412Z,22.93
2023-03-26T08:54:53.625Z,22.87
2023-03-26T08:55:55.944Z,22.87
2023-03-26T08:56:58.291Z,22.87
2023-03-26T08:58:00.624Z,22.87
2023-03-26T08:59:02.892Z,22.87
2023-03-26T09:00:05.183Z,22.87
2023-03-26T09:01:08.558Z,22.87
2023-03-26T09:02:11.750Z,22.81
2023-03-26T09:03:15.164Z,22.87
2023-03-26T09:04:18.368Z,22.87
2023-03-26T09:05:21.754Z,22.87
2023-03-26T09:06:24.925Z,22.87
2023-03-26T09:07:28.306Z,22.87
2023-03-26T09:08:31.553Z,22.87
2023-03-26T09:09:34.908Z,22.81
2023-03-26T09:10:38.733Z,22.87
2023-03-26T09:11:42.019Z,22.87
2023-03-26T09:12:45.305Z,22.81
2023-03-26T09:13:47.569Z,22.87
2023-03-26T09:14:50.840Z,22.87
2023-03-26T09:15:54.269Z,22.87
2023-03-26T09:16:57.489Z,22.81
2023-03-26T09:18:00.799Z,22.81
2023-03-26T09:19:04.019Z,22.87
2023-03-26T09:20:06.343Z,22.87
2023-03-26T09:21:08.651Z,22.87
2023-03-26T09:22:11.035Z,22.87
2023-03-26T09:23:13.239Z,22.87
2023-03-26T09:24:16.549Z,22.87
2023-03-26T09:25:19.879Z,22.87
2023-03-26T09:26:23.116Z,22.87
2023-03-26T09:27:26.407Z,22.87
2023-03-26T09:28:29.751Z,22.87
2023-03-26T09:29:32.989Z,22.81
2023-03-26T09:30:36.285Z,22.81
2023-03-26T09:32:42.885Z,22.81
2023-03-26T09:33:46.282Z,22.87
2023-03-26T09:34:49.462Z,22.81
2023-03-26T09:35:52.772Z,22.87
2023-03-26T09:36:55.072Z,22.81
2023-03-26T09:37:58.338Z,22.87
2023-03-26T09:39:01.654Z,22.87
2023-03-26T09:40:04.951Z,22.81
2023-03-26T09:41:08.230Z,22.81
2023-03-26T09:42:11.513Z,22.81
2023-03-26T09:43:14.857Z,22.87
2023-03-26T09:44:18.102Z,22.81
2023-03-26T09:45:20.464Z,22.81
2023-03-26T09:46:22.723Z,22.81
2023-03-26T09:47:25.060Z,22.81
2023-03-26T09:48:27.366Z,22.81
2023-03-26T09:49:30.700Z,22.81
2023-03-26T09:50:33.927Z,22.81
2023-03-26T09:51:37.214Z,22.87
2023-03-26T09:52:40.510Z,22.81
2023-03-26T09:53:43.810Z,22.81
2023-03-26T09:54:47.109Z,22.87
2023-03-26T09:55:50.389Z,22.81
2023-03-26T09:56:53.677Z,22.81
2023-03-26T09:57:56.993Z,22.87
2023-03-26T09:59:00.284Z,22.81
2023-03-26T10:00:03.592Z,22.87
2023-03-26T10:01:06.832Z,22.87
2023-03-26T10:02:09.144Z,22.87
2023-03-26T10:03:12.502Z,22.81
2023-03-26T10:04:15.824Z,22.81
2023-03-26T10:05:19.027Z,22.81
2023-03-26T10:06:22.339Z,22.81
2023-03-26T10:07:25.628Z,22.81
2023-03-26T10:08:28.967Z,22.81
2023-03-26T10:09:31.300Z,22.81
2023-03-26T10:10:33.529Z,22.81
2023-03-26T10:11:35.833Z,22.81
2023-03-26T10:12:38.184Z,22.81
2023-03-26T10:13:42.021Z,22.81
2023-03-26T10:14:45.329Z,22.81
2023-03-26T10:15:48.628Z,22.81
2023-03-26T10:16:51.917Z,22.81
2023-03-26T10:17:55.214Z,22.75
2023-03-26T10:18:58.501Z,22.81
2023-03-26T10:20:01.797Z,22.81
2023-03-26T10:21:05.116Z,22.81
2023-03-26T10:22:08.380Z,22.81
2023-03-26T10:23:11.666Z,22.81
2023-03-26T10:24:14.955Z,22.81
2023-03-26T10:25:18.255Z,22.81
2023-03-26T10:26:20.614Z,22.81
2023-03-26T10:27:23.840Z,22.81
2023-03-26T10:28:27.138Z,22.81
2023-03-26T10:29:30.427Z,22.81
2023-03-26T10:30:33.732Z,22.81
2023-03-26T10:31:37.009Z,22.81
2023-03-26T10:32:40.302Z,22.81
2023-03-26T10:33:42.629Z,22.81
2023-03-26T10:34:44.913Z,22.87
2023-03-26T10:35:47.237Z,22.81
2023-03-26T10:36:49.543Z,22.87
2023-03-26T10:37:52.849Z,22.81
2023-03-26T10:38:56.133Z,22.81
2023-03-26T10:39:59.411Z,22.81
2023-03-26T10:41:02.705Z,22.87
2023-03-26T10:42:06.008Z,22.81
2023-03-26T10:43:09.289Z,22.81
2023-03-26T10:44:12.580Z,22.81
2023-03-26T10:45:15.878Z,22.81
2023-03-26T10:46:19.196Z,22.75
2023-03-26T10:47:22.464Z,22.81
2023-03-26T10:48:25.749Z,22.81
2023-03-26T10:49:29.061Z,22.81
2023-03-26T10:50:31.362Z,22.81
2023-03-26T10:51:34.663Z,22.81
2023-03-26T10:52:37.939Z,22.81
2023-03-26T10:53:41.233Z,22.81
2023-03-26T10:54:44.538Z,22.81
2023-03-26T10:55:47.800Z,22.81
2023-03-26T10:56:51.097Z,22.81
2023-03-26T10:57:53.437Z,22.81
2023-03-26T10:58:55.724Z,22.87
2023-03-26T10:59:59.007Z,22.81
2023-03-26T11:01:01.342Z,22.81
2023-03-26T11:02:03.675Z,22.81
2023-03-26T11:03:06.930Z,22.81
2023-03-26T11:04:10.225Z,22.81
2023-03-26T11:05:13.507Z,22.87
2023-03-26T11:06:16.814Z,22.81
2023-03-26T11:07:20.098Z,22.81
2023-03-26T11:08:23.396Z,22.75
2023-03-26T11:09:26.692Z,22.81
2023-03-26T11:10:29.977Z,22.75
2023-03-26T11:11:33.269Z,22.81
2023-03-26T11:12:36.554Z,22.81
2023-03-26T11:13:39.845Z,22.81
2023-03-26T11:14:43.180Z,22.81
2023-03-26T11:15:45.461Z,22.75
2023-03-26T11:16:48.757Z,22.81
2023-03-26T11:17:52.053Z,22.81
2023-03-26T11:18:55.336Z,22.75
2023-03-26T11:19:58.740Z,22.81
2023-03-26T11:21:02.006Z,22.81
2023-03-26T11:22:05.225Z,22.81
2023-03-26T11:23:07.553Z,22.75
2023-03-26T11:24:09.926Z,22.81
2023-03-26T11:25:13.103Z,22.81
2023-03-26T11:26:16.425Z,22.81
2023-03-26T11:27:19.834Z,22.81
2023-03-26T11:28:23.190Z,22.75
2023-03-26T11:29:26.348Z,22.75
2023-03-26T11:31:33.067Z,22.81
2023-03-26T11:32:36.346Z,22.75
2023-03-26T11:33:39.684Z,22.81
2023-03-26T11:34:42.862Z,22.81
2023-03-26T11:35:46.319Z,22.81
2023-03-26T11:36:49.448Z,22.81
2023-03-26T11:37:51.744Z,22.81
2023-03-26T11:38:55.057Z,22.81
2023-03-26T11:39:58.318Z,22.81
2023-03-26T11:41:01.745Z,22.81
2023-03-26T11:42:04.956Z,22.81
2023-03-26T11:43:08.277Z,22.81
2023-03-26T11:44:11.488Z,22.81
2023-03-26T11:45:14.845Z,22.81
2023-03-26T11:46:17.098Z,22.81
2023-03-26T11:47:19.427Z,22.75
2023-03-26T11:48:21.724Z,22.81
2023-03-26T11:49:24.014Z,22.81
2023-03-26T11:50:26.367Z,22.81
2023-03-26T11:51:28.641Z,22.81
2023-03-26T11:52:31.924Z,22.75
2023-03-26T11:53:35.238Z,22.81
2023-03-26T11:54:38.515Z,22.81
2023-03-26T11:55:41.841Z,22.81
2023-03-26T11:56:45.728Z,22.81
2023-03-26T11:58:52.310Z,22.81
2023-03-26T11:59:55.618Z,22.81
2023-03-26T12:00:58.899Z,22.81
2023-03-26T12:02:02.179Z,22.81
2023-03-26T12:03:05.475Z,22.81
2023-03-26T12:04:08.761Z,22.81
2023-03-26T12:05:11.082Z,22.81
2023-03-26T12:06:14.380Z,22.81
2023-03-26T12:07:17.669Z,22.81
2023-03-26T12:08:20.959Z,22.81
2023-03-26T12:09:24.228Z,22.81
2023-03-26T12:10:27.536Z,22.81
2023-03-26T12:11:30.815Z,22.81
2023-03-26T12:12:34.123Z,22.81
2023-03-26T12:13:36.431Z,22.81
2023-03-26T12:14:38.737Z,22.81
2023-03-26T12:15:42.037Z,22.81
2023-03-26T12:16:45.954Z,22.81
2023-03-26T12:17:48.256Z,22.87
2023-03-26T12:18:50.556Z,22.87
2023-03-26T12:19:53.863Z,22.81
2023-03-26T12:20:57.155Z,22.87
2023-03-26T12:22:00.566Z,22.87
2023-03-26T12:23:03.757Z,22.93
2023-03-26T12:24:07.025Z,22.93
2023-03-26T12:25:10.306Z,23
2023-03-26T12:26:13.613Z,22.93
2023-03-26T12:27:16.900Z,22.93
2023-03-26T12:28:20.195Z,22.93
2023-03-26T12:29:23.474Z,22.93
2023-03-26T12:30:26.780Z,22.93
2023-03-26T12:31:29.091Z,22.93
2023-03-26T12:32:32.383Z,23
2023-03-26T12:33:35.679Z,23
2023-03-26T12:34:38.986Z,22.93
2023-03-26T12:35:43.037Z,23
2023-03-26T12:36:46.288Z,23
2023-03-26T12:37:49.563Z,23
2023-03-26T12:38:52.849Z,23
2023-03-26T12:39:55.152Z,23
2023-03-26T12:40:57.587Z,23
2023-03-26T12:41:59.776Z,23
2023-03-26T12:43:51.461Z,23
2023-03-26T12:44:42.379Z,23.06
2023-03-26T12:45:08.665Z,23.06
2023-03-26T12:46:11.955Z,23
2023-03-26T12:47:15.247Z,23.06
2023-03-26T12:48:18.572Z,23.06
2023-03-26T12:49:21.846Z,23
2023-03-26T12:50:25.124Z,23.06
2023-03-26T12:51:28.475Z,23.06
2023-03-26T12:52:31.718Z,23
2023-03-26T12:53:34.997Z,23.06
2023-03-26T12:54:38.331Z,23.06
2023-03-26T12:55:41.583Z,23.06
2023-03-26T12:56:43.951Z,23.06
2023-03-26T12:57:47.292Z,23.06
2023-03-26T12:58:50.625Z,23.06
2023-03-26T12:59:53.759Z,23.06
2023-03-26T13:00:57.289Z,23.06
2023-03-26T13:02:00.434Z,23.06
2023-03-26T13:03:03.641Z,23.06
2023-03-26T13:04:05.947Z,23.06
2023-03-26T13:05:08.274Z,23.06
2023-03-26T13:06:10.585Z,23.06
2023-03-26T13:07:12.892Z,23.06
2023-03-26T13:08:16.196Z,23.06
2023-03-26T13:09:19.539Z,23.12
2023-03-26T13:10:22.771Z,23.12
2023-03-26T13:11:26.073Z,23.12
2023-03-26T13:12:29.393Z,23.12
2023-03-26T13:13:32.623Z,23.06
2023-03-26T13:14:35.932Z,23.06
2023-03-26T13:15:39.237Z,23.12
2023-03-26T13:16:43.173Z,23.06
2023-03-26T13:17:46.479Z,23.06
2023-03-26T13:18:49.835Z,23.06
2023-03-26T13:19:53.091Z,23.06
2023-03-26T13:20:55.370Z,23.06
2023-03-26T13:21:58.669Z,23.06
2023-03-26T13:23:01.938Z,23.06
2023-03-26T13:24:05.237Z,23.06
2023-03-26T13:25:08.528Z,23.06
2023-03-26T13:26:11.818Z,23.06
2023-03-26T13:27:15.113Z,23.06
2023-03-26T13:28:17.436Z,23.06
2023-03-26T13:29:19.739Z,23.06
2023-03-26T13:30:22.077Z,23.06
2023-03-26T13:31:24.360Z,23.12
2023-03-26T13:32:27.649Z,23.06
2023-03-26T13:33:30.962Z,23.06
2023-03-26T13:34:34.218Z,23.06
2023-03-26T13:35:37.557Z,23.06
2023-03-26T13:36:40.821Z,23.06
2023-03-26T13:37:44.116Z,23.06
2023-03-26T13:38:47.385Z,23
2023-03-26T13:39:50.688Z,23.06
2023-03-26T13:40:54.005Z,23.06
2023-03-26T13:41:57.291Z,23.06
2023-03-26T13:43:00.585Z,23.06
2023-03-26T13:44:03.895Z,23.06
2023-03-26T13:45:06.237Z,23.06
2023-03-26T13:46:09.477Z,23.06
2023-03-26T13:47:12.774Z,23.06
2023-03-26T13:48:16.056Z,23.06
2023-03-26T13:49:19.346Z,23.12